This is the latest recevied weather packets stored in our database for station/object N7BTW-13. If no packets are shown the sender has not sent any weather packets the latest 10 day(s).
| Time | Temp. | Humidity | Pressure | Rain* | Wind** | Luminosity | Snow |
|---|---|---|---|---|---|---|---|
| 1787682007 | 26.67° C | 55% | - | 0 mm | - | - | - |
| 1787681407 | 25.56° C | 58% | - | 0 mm | - | - | - |
| 1787680807 | 25° C | 60% | - | 0 mm | - | - | - |
| 1787680207 | 25° C | 60% | - | 0 mm | - | - | - |
| 1787679606 | 24.44° C | 62% | - | 0 mm | - | - | - |
| 1787679007 | 24.44° C | 63% | - | 0 mm | - | - | - |
| 1787678407 | 24.44° C | 64% | - | 0 mm | - | - | - |
| 1787677807 | 23.89° C | 64% | - | 0 mm | - | - | - |
| 1787677207 | 23.89° C | 66% | - | 0 mm | - | - | - |
| 1787676610 | 22.78° C | 69% | - | 0 mm | - | - | - |
| 1787676007 | 22.22° C | 71% | - | 0 mm | - | - | - |
| 1787675406 | 21.67° C | 73% | - | 0 mm | - | - | - |
| 1787674805 | 21.11° C | 74% | - | 0 mm | - | - | - |
| 1787674207 | 20.56° C | 77% | - | 0 mm | - | - | - |
| 1787673607 | 19.44° C | 81% | - | 0 mm | - | - | - |
| 1787673007 | 18.89° C | 83% | - | 0 mm | - | - | - |
| 1787672406 | 17.78° C | 87% | - | 0 mm | - | - | - |
| 1787671809 | 16.67° C | 93% | - | 0 mm | - | - | - |
| 1787671208 | 16.11° C | 96% | - | 0 mm | - | - | - |
| 1787670607 | 15.56° C | 97% | - | 0 mm | - | - | - |
| 1787670007 | 15° C | 99% | - | 0 mm | - | - | - |
| 1787669409 | 14.44° C | 99% | - | 0 mm | - | - | - |
| 1787668807 | 13.89° C | 98% | - | 0 mm | - | - | - |
| 1787668207 | 13.33° C | 98% | - | 0 mm | - | - | - |
| 1787667607 | 13.33° C | 98% | - | 0 mm | - | - | - |
* Rain latest hour (hover to see other rain measurements)
** Current wind speed in m/s (hover to see current wind gust speed)